Time;durP1;ratioP1;P1;durP2;ratioP2;P2;SDS_P1;SDS_P2;PMS_P1;PMS_P2;Temp;Humidity;BMP_temperature;BMP_pressure;BME280_temperature;BME280_humidity;BME280_pressure;Samples;Min_cycle;Max_cycle;Signal;HPM_P1;HPM_P2
2022/02/22 00:00:45;;;;;;;3.58;1.23;;;18.70;65.40;;;;;;5011405;27;98089;-57
2022/02/22 00:03:17;;;;;;;3.97;1.38;;;18.80;65.50;;;;;;5008161;28;96292;-55
2022/02/22 00:05:50;;;;;;;3.17;1.15;;;18.80;65.40;;;;;;5010485;28;95896;-57
2022/02/22 00:08:22;;;;;;;3.42;1.33;;;18.80;65.30;;;;;;5006262;28;95741;-55
2022/02/22 00:10:54;;;;;;;3.95;1.25;;;18.90;65.20;;;;;;5013517;28;95561;-57
2022/02/22 00:13:25;;;;;;;5.25;1.50;;;18.90;65.10;;;;;;5013739;28;95751;-58
2022/02/22 00:15:57;;;;;;;3.72;1.05;;;19.00;65.00;;;;;;5005231;28;95633;-57
2022/02/22 00:18:28;;;;;;;5.57;1.60;;;19.00;65.00;;;;;;5013253;28;95352;-54
2022/02/22 00:20:59;;;;;;;;;;;19.00;65.00;;;;;;5010162;28;95860;-57
2022/02/22 00:23:32;;;;;;;5.05;1.08;;;19.10;65.00;;;;;;5008415;28;96583;-57
2022/02/22 00:26:05;;;;;;;3.15;1.15;;;19.10;65.00;;;;;;5006628;28;95940;-59
2022/02/22 00:28:39;;;;;;;3.05;1.25;;;19.10;64.90;;;;;;5015197;28;95838;-57
2022/02/22 00:31:09;;;;;;;2.40;0.95;;;19.20;64.80;;;;;;5000828;28;97613;-59
2022/02/22 00:33:44;;;;;;;2.72;0.80;;;19.20;64.90;;;;;;5013176;28;95932;-59
2022/02/22 00:36:14;;;;;;;3.80;1.10;;;19.30;64.90;;;;;;5011135;28;95733;-57
2022/02/22 00:38:46;;;;;;;3.25;1.33;;;19.30;64.80;;;;;;5011384;28;95487;-57
2022/02/22 00:41:18;;;;;;;4.50;1.35;;;19.30;64.80;;;;;;5005917;28;95755;-53
2022/02/22 00:43:51;;;;;;;3.33;0.90;;;19.30;64.90;;;;;;5017314;28;95991;-57
2022/02/22 00:46:22;;;;;;;;;;;19.40;64.80;;;;;;5013531;28;95668;-58
2022/02/22 00:48:52;;;;;;;3.80;1.63;;;19.40;64.60;;;;;;5024317;28;96209;-57
2022/02/22 00:51:23;;;;;;;4.63;1.40;;;19.50;64.70;;;;;;5016556;28;95737;-55
2022/02/22 00:53:56;;;;;;;3.22;1.33;;;19.60;64.60;;;;;;5015305;28;95923;-54
2022/02/22 00:56:27;;;;;;;3.97;1.15;;;19.60;64.50;;;;;;5015411;27;95746;-57
2022/02/22 00:59:01;;;;;;;4.45;1.20;;;19.60;64.50;;;;;;5020111;28;96067;-57
2022/02/22 01:01:31;;;;;;;3.30;1.07;;;19.60;64.50;;;;;;5019704;28;101737;-56
2022/02/22 01:04:03;;;;;;;4.38;1.33;;;19.70;64.50;;;;;;5016163;28;96554;-51
2022/02/22 01:06:34;;;;;;;2.05;0.90;;;19.80;64.50;;;;;;5015027;28;96622;-57
2022/02/22 01:09:06;;;;;;;3.47;1.10;;;19.80;64.30;;;;;;5074675;22;98113;-45
2022/02/22 01:11:37;;;;;;;1.50;0.90;;;19.90;64.20;;;;;;4977422;28;95349;-45
2022/02/22 01:14:10;;;;;;;4.03;1.02;;;20.00;64.10;;;;;;4968652;28;97556;-44
2022/02/22 01:16:41;;;;;;;3.15;1.00;;;20.00;64.10;;;;;;4967633;28;98297;-43
2022/02/22 01:19:14;;;;;;;2.80;1.05;;;20.10;64.10;;;;;;4976520;28;95764;-44
2022/02/22 01:21:46;;;;;;;3.28;1.30;;;20.10;63.90;;;;;;4983481;28;97032;-46
2022/02/22 01:24:20;;;;;;;3.28;1.15;;;20.20;63.90;;;;;;4969366;28;96437;-46
2022/02/22 01:26:52;;;;;;;3.40;1.17;;;20.20;63.70;;;;;;4980968;28;95746;-43
2022/02/22 01:29:26;;;;;;;2.47;1.00;;;20.20;63.80;;;;;;4977341;28;95769;-43
2022/02/22 01:31:58;;;;;;;1.80;1.13;;;20.30;63.80;;;;;;4970052;28;96420;-43
2022/02/22 01:34:29;;;;;;;5.20;1.45;;;20.30;63.70;;;;;;4972182;28;96329;-43
2022/02/22 01:36:59;;;;;;;4.55;1.23;;;20.40;63.70;;;;;;4975439;28;96085;-43
2022/02/22 01:39:30;;;;;;;3.90;1.10;;;20.40;63.70;;;;;;4976221;28;97882;-51
2022/02/22 01:42:02;;;;;;;4.60;1.27;;;20.40;64.30;;;;;;4972724;28;95870;-48
2022/02/22 01:44:34;;;;;;;3.13;0.95;;;20.50;63.60;;;;;;4977713;28;96114;-44
2022/02/22 01:47:07;;;;;;;2.67;1.23;;;20.60;63.50;;;;;;4972560;28;95860;-46
2022/02/22 01:49:38;;;;;;;3.60;1.13;;;20.70;63.50;;;;;;4970245;28;95601;-46
2022/02/22 01:52:10;;;;;;;5.13;1.40;;;20.70;63.30;;;;;;4972393;28;95974;-51
2022/02/22 01:54:41;;;;;;;2.42;1.08;;;20.80;63.00;;;;;;4972724;28;97306;-54
2022/02/22 01:57:13;;;;;;;2.53;0.80;;;20.90;62.70;;;;;;4979800;28;95801;-50
2022/02/22 01:59:47;;;;;;;4.43;1.15;;;21.00;62.80;;;;;;4966159;28;97486;-52
2022/02/22 02:02:19;;;;;;;2.92;1.17;;;21.00;62.80;;;;;;4973728;28;95864;-50
2022/02/22 02:04:50;;;;;;;2.30;0.90;;;21.00;62.90;;;;;;4973326;28;96406;-55
2022/02/22 02:07:22;;;;;;;3.67;1.20;;;21.00;63.30;;;;;;4972157;28;96126;-55
2022/02/22 02:09:53;;;;;;;3.20;1.25;;;21.00;62.60;;;;;;4965420;28;95962;-51
2022/02/22 02:12:24;;;;;;;2.83;1.20;;;21.10;62.60;;;;;;4970099;28;95739;-55
2022/02/22 02:14:56;;;;;;;4.22;1.20;;;21.10;62.60;;;;;;4967223;28;97222;-53
2022/02/22 02:17:29;;;;;;;7.80;1.73;;;21.10;62.50;;;;;;4984727;28;98626;-52
2022/02/22 02:19:59;;;;;;;4.57;1.17;;;21.20;62.50;;;;;;4976927;28;95530;-53
2022/02/22 02:22:29;;;;;;;2.90;0.95;;;21.20;62.30;;;;;;4963451;28;95938;-53
2022/02/22 02:25:00;;;;;;;1.88;0.98;;;21.20;62.40;;;;;;4973866;28;96148;-52
2022/02/22 02:27:32;;;;;;;3.28;1.05;;;21.30;62.30;;;;;;4972457;28;95474;-54
2022/02/22 02:30:05;;;;;;;3.65;1.40;;;21.30;62.10;;;;;;4973873;28;95738;-51
2022/02/22 02:32:38;;;;;;;1.70;1.23;;;21.40;62.00;;;;;;4976983;28;96169;-54
2022/02/22 02:35:09;;;;;;;2.47;0.85;;;21.40;62.00;;;;;;4975718;28;96016;-55
2022/02/22 02:37:40;;;;;;;;;;;21.50;61.80;;;;;;4971664;28;95649;-55
2022/02/22 02:40:32;;;;;;;3.95;1.00;;;21.50;61.90;;;;;;4969484;28;96125;-52
2022/02/22 02:43:03;;;;;;;1.83;1.00;;;21.60;61.80;;;;;;4973310;28;95715;-55
2022/02/22 02:45:33;;;;;;;3.35;1.27;;;21.60;57.40;;;;;;4959970;28;96326;-52
2022/02/22 02:48:04;;;;;;;3.15;1.10;;;21.60;61.50;;;;;;4968257;28;95729;-52
2022/02/22 02:50:35;;;;;;;2.53;1.10;;;21.70;62.20;;;;;;4972312;28;95764;-52
2022/02/22 02:53:06;;;;;;;2.85;1.40;;;21.70;61.50;;;;;;4972084;28;95823;-53
2022/02/22 02:55:39;;;;;;;2.85;1.05;;;21.70;61.40;;;;;;4973767;28;96216;-54
2022/02/22 02:58:11;;;;;;;4.68;1.63;;;21.80;61.40;;;;;;4961307;28;95879;-55
2022/02/22 03:00:41;;;;;;;2.22;1.45;;;21.80;61.30;;;;;;4968827;28;97780;-54
2022/02/22 03:03:13;;;;;;;3.60;0.98;;;21.80;61.20;;;;;;4981107;28;95827;-54
2022/02/22 03:05:45;;;;;;;3.65;1.20;;;21.90;61.20;;;;;;4967875;28;96680;-45
2022/02/22 03:08:17;;;;;;;4.00;1.15;;;22.00;61.00;;;;;;4965110;28;96056;-46
2022/02/22 03:10:48;;;;;;;3.03;1.08;;;22.10;60.90;;;;;;4975965;28;95658;-46
2022/02/22 03:13:20;;;;;;;2.50;1.05;;;22.10;60.80;;;;;;4973419;28;95375;-48
2022/02/22 03:15:51;;;;;;;2.00;1.10;;;22.20;60.70;;;;;;4967507;28;96310;-50
2022/02/22 03:18:23;;;;;;;1.08;0.98;;;22.30;60.40;;;;;;4976776;28;96054;-48
2022/02/22 03:20:54;;;;;;;1.17;1.08;;;22.30;60.60;;;;;;4977844;28;95750;-46
2022/02/22 03:23:24;;;;;;;3.47;1.20;;;22.40;60.50;;;;;;4972891;28;95822;-44
2022/02/22 03:25:56;;;;;;;1.83;1.15;;;22.50;60.60;;;;;;4960739;28;96766;-43
2022/02/22 03:28:27;;;;;;;;;;;22.50;60.50;;;;;;4978751;28;96071;-43
2022/02/22 03:31:01;;;;;;;3.35;1.58;;;22.60;60.90;;;;;;4967225;28;98180;-45
2022/02/22 03:33:33;;;;;;;3.03;1.13;;;22.70;60.30;;;;;;4955519;28;96062;-49
2022/02/22 03:36:04;;;;;;;2.65;1.10;;;22.70;60.20;;;;;;4974297;28;96131;-44
2022/02/22 03:38:35;;;;;;;1.27;1.10;;;22.70;60.30;;;;;;4967223;28;95843;-48
2022/02/22 03:41:06;;;;;;;3.33;1.20;;;22.70;60.40;;;;;;4980220;28;96159;-50
2022/02/22 03:43:38;;;;;;;1.90;1.30;;;22.70;60.30;;;;;;4964473;28;95505;-50
2022/02/22 03:46:08;;;;;;;2.60;1.48;;;22.70;59.80;;;;;;4969234;28;98615;-48
2022/02/22 03:48:40;;;;;;;2.22;1.10;;;22.60;59.30;;;;;;4965206;28;95993;-46
2022/02/22 03:51:11;;;;;;;2.38;1.33;;;22.70;54.80;;;;;;4964557;28;95696;-51
2022/02/22 03:53:43;;;;;;;2.63;1.20;;;22.70;58.10;;;;;;4964892;28;97890;-50
2022/02/22 03:56:14;;;;;;;1.63;0.93;;;22.70;57.80;;;;;;4957976;28;96018;-48
2022/02/22 03:58:48;;;;;;;2.63;1.02;;;22.70;57.80;;;;;;4953575;28;96363;-45
2022/02/22 04:01:19;;;;;;;1.83;1.00;;;22.70;57.60;;;;;;4955963;28;98046;-47
2022/02/22 04:03:50;;;;;;;1.10;0.85;;;22.60;57.00;;;;;;4973197;28;95988;-46
2022/02/22 04:06:22;;;;;;;2.17;0.98;;;22.60;56.70;;;;;;4971372;28;96313;-44
2022/02/22 04:08:53;;;;;;;4.40;1.75;;;22.60;56.40;;;;;;4969302;28;95942;-48
2022/02/22 04:11:26;;;;;;;2.10;1.20;;;22.70;56.30;;;;;;4941591;28;97437;-47
2022/02/22 04:13:57;;;;;;;3.60;1.10;;;22.70;55.80;;;;;;4965980;28;96053;-48
2022/02/22 04:16:28;;;;;;;2.42;1.02;;;22.70;55.60;;;;;;4973410;28;96192;-48
2022/02/22 04:18:58;;;;;;;1.33;1.02;;;22.70;55.10;;;;;;4973452;28;96184;-47
2022/02/22 04:21:28;;;;;;;3.53;1.27;;;22.70;54.90;;;;;;4981620;28;95913;-49
2022/02/22 04:24:00;;;;;;;0.90;0.90;;;22.80;54.60;;;;;;4973404;28;95757;-49
2022/02/22 04:26:32;;;;;;;2.42;1.20;;;22.80;54.30;;;;;;4975728;28;97649;-41
2022/02/22 04:29:04;;;;;;;2.10;0.90;;;22.90;54.40;;;;;;4975352;28;95923;-41
2022/02/22 04:31:38;;;;;;;2.63;1.30;;;22.90;53.50;;;;;;4962198;28;95828;-41
2022/02/22 04:34:09;;;;;;;2.03;1.00;;;22.80;53.20;;;;;;4970934;28;95722;-42
2022/02/22 04:36:41;;;;;;;1.80;1.10;;;22.90;53.10;;;;;;4970007;28;96298;-41
2022/02/22 04:39:12;;;;;;;4.43;1.20;;;22.90;53.10;;;;;;4979175;28;95913;-41
2022/02/22 04:41:44;;;;;;;1.60;1.20;;;22.90;53.00;;;;;;4978494;28;95971;-40
2022/02/22 04:44:14;;;;;;;2.03;1.25;;;22.90;52.70;;;;;;4964556;28;95404;-41
2022/02/22 04:46:46;;;;;;;2.50;1.07;;;22.90;52.30;;;;;;4967921;28;97312;-41
2022/02/22 04:49:22;;;;;;;4.72;1.25;;;23.00;51.90;;;;;;4976740;28;95757;-42
2022/02/22 04:51:52;;;;;;;2.28;1.20;;;22.90;51.70;;;;;;4984466;28;96629;-48
2022/02/22 04:54:23;;;;;;;1.55;1.00;;;22.90;51.60;;;;;;4978413;28;95910;-48
2022/02/22 04:56:55;;;;;;;2.60;1.30;;;22.90;51.40;;;;;;4982166;28;96997;-48
2022/02/22 04:59:26;;;;;;;1.20;0.85;;;23.00;51.20;;;;;;4980134;28;96157;-48
2022/02/22 05:01:57;;;;;;;1.35;1.00;;;23.00;50.90;;;;;;4964131;28;95872;-41
2022/02/22 05:04:29;;;;;;;1.63;0.90;;;23.10;50.80;;;;;;4978015;28;95769;-41
2022/02/22 05:07:03;;;;;;;1.42;0.88;;;23.10;50.80;;;;;;4977699;28;96640;-49
2022/02/22 05:09:34;;;;;;;3.28;1.17;;;23.10;50.60;;;;;;4972417;28;95848;-40
2022/02/22 05:12:06;;;;;;;1.33;0.88;;;23.10;50.10;;;;;;4974937;28;95896;-40
2022/02/22 05:14:38;;;;;;;2.42;1.15;;;23.20;49.90;;;;;;4980210;28;95749;-42
2022/02/22 05:17:09;;;;;;;1.95;1.08;;;23.10;49.70;;;;;;4966259;28;98920;-41
2022/02/22 05:19:40;;;;;;;1.73;1.30;;;23.20;49.60;;;;;;4965838;28;98855;-39
2022/02/22 05:22:11;;;;;;;1.75;0.98;;;23.20;49.30;;;;;;4970916;28;95260;-40
2022/02/22 05:24:42;;;;;;;2.22;0.95;;;23.20;49.30;;;;;;4972361;28;95666;-40
2022/02/22 05:27:13;;;;;;;1.88;1.10;;;23.20;49.10;;;;;;4972487;28;96830;-42
2022/02/22 05:29:44;;;;;;;;;;;23.30;48.70;;;;;;4974796;28;95685;-41
2022/02/22 05:32:15;;;;;;;2.60;0.95;;;23.30;48.90;;;;;;4971954;28;96215;-40
2022/02/22 05:34:45;;;;;;;2.65;1.20;;;23.30;48.90;;;;;;4969323;28;96483;-40
2022/02/22 05:37:16;;;;;;;1.35;0.80;;;23.30;48.70;;;;;;4959314;28;98923;-41
2022/02/22 05:39:50;;;;;;;1.88;1.20;;;23.20;48.60;;;;;;4970584;28;96153;-41
2022/02/22 05:42:24;;;;;;;3.05;1.15;;;23.20;48.50;;;;;;4973771;28;95717;-41
2022/02/22 05:44:57;;;;;;;2.85;1.15;;;23.20;48.60;;;;;;4974120;28;95881;-41
2022/02/22 05:47:28;;;;;;;2.55;1.35;;;23.20;48.70;;;;;;4970527;28;99783;-41
2022/02/22 05:50:01;;;;;;;1.00;0.90;;;23.20;48.50;;;;;;4981165;28;95818;-41
2022/02/22 05:52:31;;;;;;;4.07;1.20;;;23.20;48.20;;;;;;4980050;28;95784;-41
2022/02/22 05:55:03;;;;;;;1.77;1.27;;;23.20;48.50;;;;;;4973888;28;95866;-42
2022/02/22 05:57:35;;;;;;;2.17;0.90;;;23.20;48.20;;;;;;4971708;28;96103;-41
2022/02/22 06:00:10;;;;;;;2.97;1.13;;;23.20;48.30;;;;;;4979171;28;96422;-41
2022/02/22 06:02:42;;;;;;;3.80;1.33;;;23.20;48.00;;;;;;4972337;28;96011;-41
2022/02/22 06:05:14;;;;;;;1.30;1.10;;;23.20;47.00;;;;;;4970343;28;95963;-42
2022/02/22 06:07:48;;;;;;;3.70;1.33;;;23.20;48.80;;;;;;4981022;28;97275;-50
2022/02/22 06:10:21;;;;;;;2.42;1.02;;;23.40;48.70;;;;;;4966571;28;96580;-42
2022/02/22 06:12:52;;;;;;;2.15;1.05;;;23.40;48.50;;;;;;4975063;28;95815;-42
2022/02/22 06:15:23;;;;;;;2.90;1.20;;;23.50;48.40;;;;;;4969846;28;96642;-43
2022/02/22 06:17:55;;;;;;;1.42;1.02;;;23.50;48.40;;;;;;4978491;28;96415;-42
2022/02/22 06:20:27;;;;;;;3.85;1.10;;;23.60;48.40;;;;;;4972913;28;97042;-42
2022/02/22 06:22:58;;;;;;;1.58;1.23;;;23.60;48.20;;;;;;4974774;28;95900;-41
2022/02/22 06:25:30;;;;;;;1.65;0.90;;;23.60;48.10;;;;;;4969877;28;96020;-42
2022/02/22 06:28:02;;;;;;;1.30;0.98;;;23.70;48.10;;;;;;4949299;28;97362;-42
2022/02/22 06:30:38;;;;;;;1.58;1.05;;;23.70;46.80;;;;;;4970113;28;96507;-42
2022/02/22 06:33:13;;;;;;;2.33;0.98;;;23.70;47.90;;;;;;4974561;28;95593;-42
2022/02/22 06:35:48;;;;;;;1.98;1.23;;;23.70;47.80;;;;;;4969832;28;95691;-42
2022/02/22 06:38:20;;;;;;;2.05;1.15;;;23.70;47.60;;;;;;4969650;28;96576;-42
2022/02/22 06:40:52;;;;;;;5.50;1.10;;;23.70;47.50;;;;;;4975795;28;96164;-42
2022/02/22 06:43:23;;;;;;;1.95;1.02;;;23.80;47.40;;;;;;4955849;28;95690;-42
2022/02/22 06:45:53;;;;;;;3.72;1.40;;;23.70;47.30;;;;;;4966542;28;95968;-42
2022/02/22 06:48:24;;;;;;;1.13;0.90;;;23.70;47.30;;;;;;4975701;28;96632;-42
2022/02/22 06:50:54;;;;;;;1.70;0.95;;;23.70;47.20;;;;;;4979043;28;95711;-42
2022/02/22 06:53:25;;;;;;;1.67;1.40;;;23.70;47.20;;;;;;4971329;28;95286;-42
2022/02/22 06:55:58;;;;;;;0.90;0.90;;;23.70;47.20;;;;;;4957961;28;95745;-42
2022/02/22 06:58:29;;;;;;;1.50;1.02;;;23.70;47.80;;;;;;4966730;28;96696;-42
2022/02/22 07:01:00;;;;;;;3.80;1.20;;;23.70;46.90;;;;;;4962194;28;95843;-42
2022/02/22 07:03:34;;;;;;;2.38;1.15;;;23.80;47.00;;;;;;4976012;28;95336;-42
2022/02/22 07:06:06;;;;;;;1.60;1.10;;;23.70;46.90;;;;;;4971329;28;95991;-42
2022/02/22 07:08:37;;;;;;;1.10;1.00;;;23.70;46.70;;;;;;4970642;28;95969;-42
2022/02/22 07:11:09;;;;;;;1.25;0.90;;;23.80;46.70;;;;;;4956151;28;96032;-42
2022/02/22 07:13:41;;;;;;;1.77;0.90;;;23.80;46.70;;;;;;4972263;28;96088;-42
2022/02/22 07:16:14;;;;;;;2.63;1.10;;;23.70;46.70;;;;;;4963602;28;96316;-42
2022/02/22 07:18:46;;;;;;;2.22;1.20;;;23.70;46.50;;;;;;4967360;28;96152;-42
2022/02/22 07:21:16;;;;;;;4.50;1.70;;;23.70;46.20;;;;;;4965193;28;95519;-41
2022/02/22 07:23:47;;;;;;;3.97;2.23;;;23.50;45.60;;;;;;4973397;28;96139;-42
2022/02/22 07:26:19;;;;;;;7.40;4.63;;;23.50;45.50;;;;;;4979720;28;98228;-42
2022/02/22 07:28:49;;;;;;;9.85;6.00;;;23.40;45.50;;;;;;4971179;28;97163;-41
2022/02/22 07:31:21;;;;;;;11.02;8.00;;;23.40;45.60;;;;;;4967813;28;96134;-41
2022/02/22 07:33:51;;;;;;;15.13;8.70;;;23.40;45.60;;;;;;4971289;28;95729;-42
2022/02/22 07:36:21;;;;;;;9.65;8.30;;;23.30;45.60;;;;;;4967346;28;96020;-42
2022/02/22 07:38:52;;;;;;;9.77;8.50;;;23.30;45.70;;;;;;4973215;28;96784;-42
2022/02/22 07:41:24;;;;;;;10.20;8.48;;;23.30;45.80;;;;;;4966372;28;95940;-42
2022/02/22 07:43:55;;;;;;;11.25;8.70;;;23.30;45.80;;;;;;4971000;28;95341;-42
2022/02/22 07:46:25;;;;;;;11.80;9.15;;;23.20;45.80;;;;;;4970513;28;96055;-42
2022/02/22 07:48:55;;;;;;;9.80;8.27;;;23.20;45.80;;;;;;4969609;28;96170;-41
2022/02/22 07:51:26;;;;;;;12.75;9.50;;;23.20;45.90;;;;;;4969320;28;96448;-42
2022/02/22 07:53:57;;;;;;;12.37;7.97;;;23.20;46.00;;;;;;4980617;28;97803;-41
2022/02/22 07:56:34;;;;;;;9.82;7.18;;;23.20;46.20;;;;;;4981346;28;96497;-42
2022/02/22 07:59:05;;;;;;;11.25;7.97;;;23.20;46.20;;;;;;4977958;28;96446;-42
2022/02/22 08:01:37;;;;;;;9.48;6.95;;;23.20;46.30;;;;;;4934722;28;96039;-42
2022/02/22 08:04:11;;;;;;;8.77;6.65;;;23.20;46.40;;;;;;4952969;28;96021;-41
2022/02/22 08:06:47;;;;;;;10.07;6.80;;;23.20;46.40;;;;;;4958993;28;95374;-42
2022/02/22 08:09:20;;;;;;;10.95;6.82;;;23.10;46.50;;;;;;4955601;28;96751;-42
2022/02/22 08:11:54;;;;;;;8.57;6.38;;;23.20;46.50;;;;;;4963471;28;95902;-42
2022/02/22 08:14:26;;;;;;;10.85;5.88;;;23.10;46.50;;;;;;4963617;28;96519;-41
2022/02/22 08:17:00;;;;;;;7.25;5.18;;;23.10;46.50;;;;;;4966790;28;95458;-42
2022/02/22 08:19:30;;;;;;;9.60;5.80;;;23.10;46.60;;;;;;4972499;28;96117;-42
2022/02/22 08:22:04;;;;;;;7.18;5.45;;;23.10;46.80;;;;;;4979963;28;97645;-42
2022/02/22 08:24:37;;;;;;;6.55;5.20;;;23.10;46.80;;;;;;4979751;28;95838;-41
2022/02/22 08:27:08;;;;;;;6.05;4.93;;;23.10;47.00;;;;;;4982678;28;95960;-41
2022/02/22 08:29:40;;;;;;;6.35;5.40;;;23.10;47.40;;;;;;4979836;28;96340;-41
2022/02/22 08:32:11;;;;;;;7.07;5.32;;;23.10;47.90;;;;;;4972377;28;95958;-42
2022/02/22 08:34:45;;;;;;;8.77;5.38;;;23.20;48.20;;;;;;4977255;28;95930;-42
2022/02/22 08:37:17;;;;;;;7.57;4.82;;;23.30;48.40;;;;;;4976492;28;96513;-41
2022/02/22 08:39:48;;;;;;;9.47;5.27;;;23.30;48.80;;;;;;4975781;28;96056;-41
2022/02/22 08:42:20;;;;;;;5.70;4.07;;;23.30;48.90;;;;;;4963408;28;97794;-41
2022/02/22 08:45:10;;;;;;;5.55;4.18;;;23.30;49.00;;;;;;4976099;28;96620;-42
2022/02/22 08:47:40;;;;;;;6.57;4.10;;;23.30;49.10;;;;;;4967048;28;98222;-41
2022/02/22 08:50:11;;;;;;;5.47;4.85;;;23.30;49.40;;;;;;4967983;28;96623;-41
2022/02/22 08:52:44;;;;;;;6.35;4.30;;;23.30;49.80;;;;;;4969754;28;95733;-41
2022/02/22 08:55:15;;;;;;;7.28;3.80;;;23.30;50.60;;;;;;4966342;28;95932;-42
2022/02/22 08:57:46;;;;;;;9.38;4.65;;;23.30;50.80;;;;;;4967378;28;98083;-41
2022/02/22 09:00:19;;;;;;;5.38;3.55;;;23.20;51.50;;;;;;4965817;28;95903;-41
2022/02/22 09:02:57;;;;;;;5.80;3.60;;;23.20;52.60;;;;;;4978995;28;102513;-41
2022/02/22 09:05:34;;;;;;;4.95;3.58;;;23.20;53.30;;;;;;4980016;28;95662;-41
2022/02/22 09:08:06;;;;;;;5.20;3.13;;;23.20;54.10;;;;;;4978062;28;95842;-41
2022/02/22 09:10:39;;;;;;;7.07;3.03;;;23.20;54.30;;;;;;4979256;28;97677;-42
2022/02/22 09:13:12;;;;;;;4.63;3.20;;;23.20;55.30;;;;;;4974614;28;95929;-42
2022/02/22 09:15:45;;;;;;;10.50;3.20;;;23.20;55.70;;;;;;4972589;28;96084;-41
2022/02/22 09:18:17;;;;;;;4.78;2.75;;;23.20;56.30;;;;;;4981506;28;95707;-42
2022/02/22 09:20:48;;;;;;;3.22;1.92;;;23.20;55.50;;;;;;4983763;28;96400;-42
2022/02/22 09:23:18;;;;;;;4.78;2.45;;;23.20;57.40;;;;;;4982423;28;95436;-41
2022/02/22 09:25:48;;;;;;;;;;;23.20;58.00;;;;;;4979959;28;96012;-42
2022/02/22 09:28:18;;;;;;;6.15;2.53;;;23.10;58.50;;;;;;4980244;28;96128;-42
2022/02/22 09:30:48;;;;;;;5.32;2.45;;;23.00;58.80;;;;;;4971934;28;96024;-42
2022/02/22 09:33:18;;;;;;;7.90;2.70;;;23.00;59.20;;;;;;4981682;28;97212;-41
2022/02/22 09:35:54;;;;;;;5.25;2.17;;;23.10;59.70;;;;;;4982142;28;95283;-42
2022/02/22 09:38:24;;;;;;;7.70;2.30;;;23.10;59.50;;;;;;4983568;28;95996;-41
2022/02/22 09:40:58;;;;;;;5.25;2.30;;;23.10;59.50;;;;;;4982104;28;96626;-41
2022/02/22 09:43:29;;;;;;;5.10;2.28;;;23.10;59.40;;;;;;4982851;28;96097;-41
2022/02/22 09:46:00;;;;;;;6.20;2.22;;;23.10;59.40;;;;;;4966030;28;96459;-42
2022/02/22 09:48:31;;;;;;;6.15;2.40;;;23.10;59.80;;;;;;4980576;28;95353;-42
2022/02/22 09:51:02;;;;;;;5.97;2.50;;;23.10;59.50;;;;;;4980437;28;96770;-42
2022/02/22 09:53:32;;;;;;;;;;;23.10;59.80;;;;;;4973499;28;98303;-41
2022/02/22 09:56:03;;;;;;;5.10;2.13;;;23.10;59.90;;;;;;4983898;28;95836;-41
2022/02/22 09:58:34;;;;;;;6.65;2.25;;;23.00;60.30;;;;;;4984136;28;95664;-41
2022/02/22 10:01:05;;;;;;;7.97;2.40;;;23.00;59.50;;;;;;4975129;28;96499;-41
2022/02/22 10:03:36;;;;;;;7.88;2.40;;;22.90;60.80;;;;;;4977727;28;95602;-41
2022/02/22 10:06:09;;;;;;;;;;;22.90;61.00;;;;;;4982608;28;95858;-42
2022/02/22 10:08:41;;;;;;;7.15;2.30;;;22.80;61.10;;;;;;4982101;28;96585;-41
2022/02/22 10:11:14;;;;;;;6.68;2.63;;;22.80;61.30;;;;;;4982542;28;96448;-49
2022/02/22 10:13:47;;;;;;;6.40;2.13;;;22.80;61.60;;;;;;4982276;28;96110;-49
2022/02/22 10:16:18;;;;;;;8.18;2.05;;;22.80;61.70;;;;;;4975155;28;95825;-49
2022/02/22 10:19:14;;;;;;;3.97;2.10;;;22.80;61.80;;;;;;4979423;28;98054;-49
2022/02/22 10:21:56;;;;;;;5.20;2.25;;;22.80;61.90;;;;;;4977909;28;96508;-49
2022/02/22 10:24:31;;;;;;;6.60;2.08;;;22.80;62.10;;;;;;4982053;28;95966;-46
2022/02/22 10:27:06;;;;;;;7.22;2.13;;;22.70;62.00;;;;;;4981145;28;95474;-47
2022/02/22 10:29:37;;;;;;;8.25;2.58;;;22.70;62.10;;;;;;4987764;28;95491;-47
2022/02/22 10:32:12;;;;;;;5.10;2.28;;;22.70;62.30;;;;;;4973322;28;96515;-47
2022/02/22 10:34:43;;;;;;;5.60;2.05;;;22.70;62.40;;;;;;4974754;28;96055;-47
2022/02/22 10:37:16;;;;;;;6.53;1.90;;;22.60;62.50;;;;;;4965758;28;95471;-47
2022/02/22 10:39:47;;;;;;;5.82;1.90;;;22.60;62.60;;;;;;4975403;28;95643;-47
2022/02/22 10:42:20;;;;;;;3.50;1.98;;;22.60;62.70;;;;;;4979414;28;96106;-47
2022/02/22 10:44:51;;;;;;;5.43;1.55;;;22.60;62.80;;;;;;4976243;28;96868;-47
2022/02/22 10:47:21;;;;;;;6.57;2.03;;;22.50;63.10;;;;;;4969883;28;96012;-47
2022/02/22 10:49:52;;;;;;;;;;;22.50;63.00;;;;;;4972305;28;96019;-46
2022/02/22 10:52:33;;;;;;;5.88;2.30;;;22.60;63.10;;;;;;4981665;28;95749;-46
2022/02/22 10:55:05;;;;;;;5.53;1.80;;;22.60;63.10;;;;;;4984880;28;96132;-46
2022/02/22 10:57:37;;;;;;;5.68;2.33;;;22.50;63.10;;;;;;4984644;28;95358;-46
2022/02/22 11:00:08;;;;;;;7.85;1.90;;;22.50;63.20;;;;;;4982361;28;96335;-46
2022/02/22 11:02:40;;;;;;;7.28;1.88;;;22.50;63.30;;;;;;4969501;28;96222;-46
2022/02/22 11:05:31;;;;;;;6.32;2.40;;;22.50;63.30;;;;;;4970388;28;96530;-46
2022/02/22 11:08:02;;;;;;;5.50;1.92;;;22.50;63.50;;;;;;4974131;28;95284;-46
2022/02/22 11:10:44;;;;;;;4.32;1.67;;;22.50;63.60;;;;;;4968420;28;97786;-46
2022/02/22 11:13:14;;;;;;;4.10;2.10;;;22.40;63.60;;;;;;4974606;28;96330;-46
2022/02/22 11:15:46;;;;;;;4.40;2.00;;;22.40;63.70;;;;;;4966256;28;97807;-46
2022/02/22 11:18:17;;;;;;;;;;;22.40;63.80;;;;;;4975551;28;95422;-46
2022/02/22 11:20:48;;;;;;;6.80;1.80;;;22.30;63.80;;;;;;4975534;28;97885;-46
2022/02/22 11:23:29;;;;;;;5.80;1.88;;;22.30;63.90;;;;;;4983010;28;98687;-46
2022/02/22 11:26:20;;;;;;;4.85;1.55;;;22.30;64.00;;;;;;4973489;28;95875;-46
2022/02/22 11:29:00;;;;;;;2.92;1.20;;;22.30;64.10;;;;;;4974454;28;95613;-46
2022/02/22 11:31:33;;;;;;;5.72;2.05;;;22.30;64.10;;;;;;4971445;28;96020;-46
2022/02/22 11:34:05;;;;;;;4.35;2.00;;;22.30;64.10;;;;;;4978044;28;96502;-46
2022/02/22 11:36:39;;;;;;;7.03;2.17;;;22.30;64.20;;;;;;4985026;28;95930;-47
2022/02/22 11:39:21;;;;;;;5.70;2.22;;;22.20;64.30;;;;;;4985559;28;95769;-47
2022/02/22 11:41:52;;;;;;;4.13;2.22;;;22.20;64.40;;;;;;4979206;28;95676;-46
2022/02/22 11:44:24;;;;;;;4.57;1.45;;;22.20;64.40;;;;;;4980511;28;95977;-47
2022/02/22 11:46:56;;;;;;;9.18;2.30;;;22.10;64.60;;;;;;4965375;28;95963;-47
2022/02/22 11:49:33;;;;;;;6.43;2.00;;;22.10;64.70;;;;;;4968981;28;95954;-46
2022/02/22 11:52:10;;;;;;;4.57;1.83;;;22.10;64.70;;;;;;4958954;28;95590;-46
2022/02/22 11:54:47;;;;;;;4.82;1.77;;;22.10;64.70;;;;;;4965519;28;96879;-47
2022/02/22 11:57:19;;;;;;;5.18;1.60;;;22.10;64.80;;;;;;4962209;28;95991;-46
2022/02/22 12:00:00;;;;;;;6.90;2.17;;;22.00;64.90;;;;;;4960797;28;95861;-47
2022/02/22 12:02:42;;;;;;;4.40;1.83;;;22.00;64.90;;;;;;4952597;28;96284;-46
2022/02/22 12:05:28;;;;;;;7.57;2.08;;;22.00;65.70;;;;;;4953672;28;97129;-46
2022/02/22 12:08:06;;;;;;;5.18;2.17;;;22.00;65.10;;;;;;4960562;28;96078;-46
2022/02/22 12:10:47;;;;;;;5.22;2.10;;;21.90;65.10;;;;;;4961640;28;95318;-46
2022/02/22 12:13:23;;;;;;;6.93;1.50;;;21.90;65.10;;;;;;4950046;28;95413;-46
2022/02/22 12:15:55;;;;;;;9.05;2.20;;;21.90;65.20;;;;;;4949102;28;96484;-46
2022/02/22 12:18:26;;;;;;;7.72;2.33;;;21.90;65.30;;;;;;4933462;28;95727;-46
2022/02/22 12:20:56;;;;;;;3.70;1.83;;;21.90;65.30;;;;;;4944840;28;95430;-46
2022/02/22 12:23:28;;;;;;;6.95;2.45;;;21.90;65.40;;;;;;4957699;28;95694;-46
2022/02/22 12:26:09;;;;;;;7.07;2.03;;;21.80;65.50;;;;;;4954412;28;96063;-45
2022/02/22 12:28:53;;;;;;;6.90;1.80;;;21.80;65.40;;;;;;4950299;28;95422;-45
2022/02/22 12:31:36;;;;;;;6.45;2.55;;;21.80;65.40;;;;;;4959221;28;95428;-47
2022/02/22 12:34:16;;;;;;;8.15;1.75;;;21.70;65.40;;;;;;4970364;28;96254;-47
2022/02/22 12:36:55;;;;;;;8.15;2.28;;;21.70;65.50;;;;;;4981664;28;96586;-46
2022/02/22 12:39:29;;;;;;;5.82;2.40;;;21.70;65.60;;;;;;4968353;28;95833;-46
2022/02/22 12:42:02;;;;;;;7.10;2.00;;;21.70;65.60;;;;;;4978981;28;95814;-46
2022/02/22 12:44:53;;;;;;;7.53;2.20;;;21.70;65.70;;;;;;4970805;28;95722;-46
2022/02/22 12:47:24;;;;;;;7.65;2.88;;;21.60;65.70;;;;;;4971395;28;103592;-46
2022/02/22 12:50:02;;;;;;;6.88;2.50;;;21.60;65.80;;;;;;4966203;28;95471;-47
2022/02/22 12:52:33;;;;;;;7.30;2.17;;;21.60;65.90;;;;;;4975885;28;95955;-46
2022/02/22 12:55:19;;;;;;;6.25;2.10;;;21.60;66.00;;;;;;4968860;28;96031;-46
2022/02/22 12:57:53;;;;;;;6.82;2.30;;;21.60;66.00;;;;;;4984413;28;96259;-47
2022/02/22 13:00:30;;;;;;;8.30;2.03;;;21.60;66.00;;;;;;4953320;28;98516;-41
2022/02/22 13:03:14;;;;;;;6.43;2.30;;;21.50;66.10;;;;;;4967411;28;96054;-40
2022/02/22 13:05:47;;;;;;;6.32;2.08;;;21.50;66.20;;;;;;4984093;28;95781;-40
2022/02/22 13:08:20;;;;;;;7.18;2.50;;;21.50;66.30;;;;;;4972664;28;96482;-40
2022/02/22 13:10:52;;;;;;;11.63;3.10;;;21.20;67.40;;;;;;4978392;28;96141;-40
2022/02/22 13:13:28;;;;;;;9.68;2.72;;;21.10;67.90;;;;;;4962901;28;97447;-41
2022/02/22 13:16:10;;;;;;;12.32;3.28;;;20.90;69.00;;;;;;4982024;28;95351;-46